createdAt,value
2019-05-17T03:37:17.161Z,9.40
2019-05-17T03:38:17.221Z,11.10
2019-05-17T03:39:16.913Z,12.00
2019-05-17T03:40:35.355Z,12.50
2019-05-17T03:41:23.286Z,12.40
2019-05-17T03:42:16.780Z,12.30
2019-05-17T03:43:16.739Z,12.50
2019-05-17T03:44:16.699Z,12.70
2019-05-17T03:45:16.670Z,12.70
2019-05-17T03:46:16.624Z,12.70
2019-05-17T03:47:16.578Z,12.80
2019-05-17T03:48:16.562Z,12.30
2019-05-17T03:49:16.495Z,12.00
2019-05-17T03:50:16.453Z,12.30
2019-05-17T03:51:16.410Z,11.50
2019-05-17T03:52:16.401Z,11.90
2019-05-17T03:53:16.333Z,12.10
2019-05-17T03:54:16.297Z,10.60
2019-05-17T03:55:16.280Z,11.00
2019-05-17T03:56:16.208Z,11.00
2019-05-17T03:57:16.167Z,10.20
2019-05-17T03:58:16.160Z,10.00
2019-05-17T03:59:16.108Z,10.50
2019-05-17T04:00:16.044Z,11.40
2019-05-17T04:01:16.012Z,11.00
2019-05-17T04:02:15.985Z,11.50
2019-05-17T04:03:15.925Z,10.80
2019-05-17T04:04:15.891Z,11.20
2019-05-17T04:05:15.849Z,11.00
2019-05-17T04:06:15.810Z,10.40
2019-05-17T04:07:15.788Z,10.50
2019-05-17T04:08:15.726Z,10.30
2019-05-17T04:09:15.687Z,11.20
2019-05-17T04:10:15.696Z,10.50
2019-05-17T04:11:25.941Z,10.70
2019-05-17T04:12:15.573Z,11.50
2019-05-17T04:13:15.530Z,11.00
2019-05-17T04:14:15.488Z,10.70
2019-05-17T04:15:15.445Z,9.90
2019-05-17T04:16:15.415Z,10.70
2019-05-17T04:17:15.366Z,10.60
2019-05-17T04:18:15.327Z,10.30
2019-05-17T04:19:15.298Z,11.00
2019-05-17T04:20:15.244Z,10.70
2019-05-17T04:21:15.207Z,9.90
2019-05-17T04:22:15.165Z,10.50
2019-05-17T04:23:16.100Z,10.50
2019-05-17T04:24:15.091Z,11.10
2019-05-17T04:25:15.048Z,11.20
2019-05-17T04:26:15.009Z,11.40
2019-05-17T04:27:14.970Z,11.40
2019-05-17T04:28:14.928Z,11.10
2019-05-17T04:29:14.890Z,11.60
2019-05-17T04:30:14.849Z,11.20
2019-05-17T04:31:14.812Z,11.40
2019-05-17T04:32:14.797Z,11.00
2019-05-17T04:33:14.751Z,11.30
2019-05-17T04:34:14.688Z,11.80
2019-05-17T04:35:14.647Z,11.10
2019-05-17T04:36:14.610Z,11.60
2019-05-17T04:37:14.572Z,11.50
2019-05-17T04:38:14.531Z,11.60
2019-05-17T04:39:14.508Z,11.00
2019-05-17T04:40:14.811Z,10.50
2019-05-17T04:41:14.416Z,11.30
2019-05-17T04:42:14.371Z,11.70
2019-05-17T04:43:14.334Z,12.20
2019-05-17T04:44:14.303Z,10.90
2019-05-17T04:45:14.251Z,10.70
2019-05-17T04:46:14.210Z,10.60
2019-05-17T04:47:14.167Z,10.40
2019-05-17T04:48:14.143Z,10.60
2019-05-17T04:49:14.164Z,10.80
2019-05-17T04:50:14.305Z,9.80
2019-05-17T04:51:14.014Z,10.20
2019-05-17T04:52:14.065Z,10.30
2019-05-17T04:53:13.937Z,10.60
2019-05-17T04:54:14.125Z,11.00
2019-05-17T04:55:14.118Z,10.60
2019-05-17T04:56:14.280Z,10.80
2019-05-17T04:57:13.779Z,9.90
2019-05-17T04:58:13.893Z,9.80
2019-05-17T04:59:14.111Z,10.20
2019-05-17T05:00:13.789Z,10.50
2019-05-17T05:01:13.614Z,10.40
2019-05-17T05:02:13.576Z,10.30
2019-05-17T05:03:13.536Z,9.90
2019-05-17T05:04:15.417Z,10.20
2019-05-17T05:05:13.962Z,10.00
2019-05-17T05:06:13.633Z,10.20
2019-05-17T05:07:13.834Z,9.90
2019-05-17T05:08:13.339Z,9.70
2019-05-17T05:09:13.302Z,9.10
2019-05-17T05:10:13.758Z,9.30
2019-05-17T05:11:13.216Z,9.40
2019-05-17T05:12:13.171Z,9.60
2019-05-17T05:13:13.417Z,9.50
2019-05-17T05:14:13.096Z,9.70
2019-05-17T05:15:13.059Z,9.70
2019-05-17T05:16:13.439Z,9.90
2019-05-17T05:17:13.086Z,10.20
2019-05-17T05:18:13.422Z,9.80
2019-05-17T05:19:13.115Z,9.40
2019-05-17T05:20:13.529Z,9.30
2019-05-17T05:21:12.822Z,9.30
2019-05-17T05:22:14.313Z,9.60
2019-05-17T05:23:13.080Z,8.60
2019-05-17T05:24:12.694Z,9.10
2019-05-17T05:25:12.767Z,9.50
2019-05-17T05:26:12.618Z,9.30
2019-05-17T05:27:12.578Z,8.90
2019-05-17T05:28:12.541Z,9.20
2019-05-17T05:29:12.868Z,8.80
2019-05-17T05:30:12.585Z,8.80
2019-05-17T05:31:13.334Z,8.60
2019-05-17T05:32:12.384Z,8.60
2019-05-17T05:33:12.875Z,8.00
2019-05-17T05:34:12.448Z,8.00
2019-05-17T05:35:12.629Z,8.30
2019-05-17T05:36:12.219Z,8.30
2019-05-17T05:37:12.552Z,8.60
2019-05-17T05:38:13.015Z,8.20
2019-05-17T05:39:12.103Z,8.50
2019-05-17T05:40:12.731Z,9.00
2019-05-17T05:41:12.262Z,8.30
2019-05-17T05:42:13.942Z,8.10
2019-05-17T05:43:12.178Z,8.20
2019-05-17T05:44:12.211Z,8.00
2019-05-17T05:45:12.188Z,8.10
2019-05-17T05:46:11.861Z,8.30
2019-05-17T05:47:11.799Z,8.40
2019-05-17T05:48:12.808Z,7.40
2019-05-17T05:49:12.415Z,7.70
2019-05-17T05:50:12.485Z,7.40
2019-05-17T05:51:13.703Z,7.60
2019-05-17T05:52:12.526Z,7.20
2019-05-17T05:53:12.851Z,7.60
2019-05-17T05:54:12.260Z,7.40
2019-05-17T05:55:12.255Z,7.20
2019-05-17T05:56:13.361Z,7.00
2019-05-17T05:57:12.647Z,6.90
2019-05-17T05:58:12.061Z,6.80
2019-05-17T05:59:12.056Z,6.80
2019-05-17T06:00:12.698Z,7.20
2019-05-17T06:01:12.768Z,7.10
2019-05-17T06:02:12.308Z,7.30
2019-05-17T06:03:12.107Z,7.20
2019-05-17T06:04:11.761Z,7.30
2019-05-17T06:05:14.703Z,6.80
2019-05-17T06:06:12.324Z,7.00
2019-05-17T06:07:12.719Z,7.00
2019-05-17T06:08:12.287Z,6.90
2019-05-17T06:09:12.060Z,6.80
2019-05-17T06:10:12.884Z,6.40
2019-05-17T06:11:21.476Z,6.70
2019-05-17T06:13:15.255Z,6.80
2019-05-17T06:14:23.823Z,6.60
2019-05-17T06:16:28.653Z,6.60
2019-05-17T06:17:21.511Z,6.20
2019-05-17T06:18:28.113Z,6.40
2019-05-17T06:20:32.927Z,6.40
2019-05-17T06:21:23.827Z,6.50
2019-05-17T06:22:23.789Z,6.40
2019-05-17T06:23:23.751Z,6.60
2019-05-17T06:24:23.702Z,5.70
2019-05-17T06:25:23.660Z,6.20
2019-05-17T06:26:23.858Z,5.80
2019-05-17T06:27:23.593Z,6.30
2019-05-17T06:28:23.551Z,6.00
2019-05-17T06:29:23.508Z,6.00
2019-05-17T06:30:23.462Z,6.10
2019-05-17T06:31:24.069Z,6.00
2019-05-17T06:32:23.384Z,5.90
2019-05-17T06:33:30.593Z,6.20
2019-05-17T06:34:23.310Z,6.10
2019-05-17T06:35:23.278Z,6.10
2019-05-17T06:36:23.228Z,5.70
2019-05-17T06:37:23.191Z,5.40
2019-05-17T06:38:23.146Z,5.30
2019-05-17T06:39:23.110Z,5.20
2019-05-17T06:40:23.071Z,5.20
2019-05-17T06:41:23.028Z,5.20
2019-05-17T06:42:36.993Z,5.30
2019-05-17T06:43:22.947Z,4.80
2019-05-17T06:44:22.908Z,5.10
2019-05-17T06:45:22.868Z,5.20
2019-05-17T06:46:32.494Z,5.20
2019-05-17T06:48:27.257Z,5.00
2019-05-17T06:49:27.181Z,5.30
2019-05-17T06:50:27.145Z,5.50
2019-05-17T06:51:27.110Z,5.20
2019-05-17T06:52:27.103Z,5.30
2019-05-17T06:53:27.031Z,4.90
2019-05-17T06:54:26.983Z,4.60
2019-05-17T06:55:26.940Z,5.10
2019-05-17T06:56:26.903Z,5.50
2019-05-17T06:57:26.870Z,4.90
2019-05-17T06:58:26.825Z,5.10
2019-05-17T06:59:26.794Z,5.00
2019-05-17T07:00:26.747Z,5.00
2019-05-17T07:01:26.708Z,5.00
2019-05-17T07:02:26.674Z,4.90
2019-05-17T07:03:26.624Z,5.20
2019-05-17T07:04:26.600Z,5.10
2019-05-17T07:05:26.556Z,4.90
2019-05-17T07:06:26.513Z,4.90
2019-05-17T07:07:26.467Z,4.60
2019-05-17T07:08:26.429Z,4.50
2019-05-17T07:09:26.389Z,5.10
2019-05-17T07:10:26.354Z,4.40
2019-05-17T07:11:26.314Z,4.30
2019-05-17T07:12:26.274Z,4.20
2019-05-17T07:13:26.236Z,4.80
2019-05-17T07:14:26.192Z,4.70
2019-05-17T07:15:26.154Z,4.60
2019-05-17T07:16:26.111Z,4.70
2019-05-17T07:17:26.073Z,4.40
2019-05-17T07:18:26.035Z,4.30
2019-05-17T07:19:25.999Z,4.30
2019-05-17T07:20:25.952Z,4.50
2019-05-17T07:21:25.917Z,4.80
2019-05-17T07:22:25.877Z,4.70
2019-05-17T07:23:25.838Z,4.50
2019-05-17T07:24:25.799Z,4.70
2019-05-17T07:25:25.758Z,4.80
2019-05-17T07:26:25.716Z,4.70
2019-05-17T07:27:37.992Z,4.30
2019-05-17T07:28:25.638Z,4.40
2019-05-17T07:29:25.597Z,4.50
2019-05-17T07:30:25.565Z,4.70
2019-05-17T07:31:25.524Z,4.20
2019-05-17T07:32:25.485Z,4.40
2019-05-17T07:33:25.443Z,4.70
2019-05-17T07:34:25.403Z,4.30
2019-05-17T07:35:25.361Z,4.10
2019-05-17T07:36:25.327Z,4.00
2019-05-17T07:37:25.286Z,4.10
2019-05-17T07:38:25.245Z,4.30
2019-05-17T07:39:25.206Z,4.00
2019-05-17T07:40:25.165Z,4.20
2019-05-17T07:41:25.124Z,4.10
2019-05-17T07:42:25.089Z,4.00
2019-05-17T07:43:25.051Z,4.40
2019-05-17T07:44:25.009Z,4.40
2019-05-17T07:45:24.969Z,4.40
2019-05-17T07:46:24.925Z,4.00
2019-05-17T07:47:24.891Z,3.90
2019-05-17T07:48:24.853Z,4.30
2019-05-17T07:49:24.812Z,4.00
2019-05-17T07:50:24.778Z,4.20
2019-05-17T07:51:24.734Z,4.10
2019-05-17T07:52:24.690Z,4.10
2019-05-17T07:53:24.648Z,4.60
2019-05-17T07:54:24.615Z,4.10
2019-05-17T07:55:24.575Z,4.20
2019-05-17T07:56:24.535Z,4.30
2019-05-17T07:57:24.497Z,3.80
2019-05-17T07:58:24.451Z,3.90
2019-05-17T07:59:24.416Z,3.70
2019-05-17T08:00:24.376Z,3.60
2019-05-17T08:01:24.333Z,3.50
2019-05-17T08:02:24.299Z,3.40
2019-05-17T08:03:25.016Z,3.70
2019-05-17T08:04:24.220Z,3.50
2019-05-17T08:05:24.183Z,3.80
2019-05-17T08:06:24.142Z,3.90
2019-05-17T08:07:24.101Z,3.60
2019-05-17T08:08:24.063Z,3.70
2019-05-17T08:09:24.023Z,3.40
2019-05-17T08:10:23.978Z,3.60
2019-05-17T08:11:23.945Z,3.10
2019-05-17T08:12:23.903Z,3.20
2019-05-17T08:13:29.972Z,3.40
2019-05-17T08:14:30.112Z,3.20
2019-05-17T08:15:23.785Z,3.30
2019-05-17T08:16:23.746Z,3.30
2019-05-17T08:17:23.708Z,3.20
2019-05-17T08:18:23.665Z,3.20
2019-05-17T08:19:23.628Z,3.10
2019-05-17T08:20:23.588Z,3.00
2019-05-17T08:21:23.550Z,2.70
2019-05-17T08:22:23.515Z,2.90
2019-05-17T08:23:23.472Z,3.00
2019-05-17T08:24:23.440Z,2.90
2019-05-17T08:25:23.389Z,2.90
2019-05-17T08:26:23.362Z,2.80
2019-05-17T08:27:23.317Z,2.80
2019-05-17T08:28:23.276Z,2.70
2019-05-17T08:29:23.238Z,2.80
2019-05-17T08:30:23.194Z,2.80
2019-05-17T08:31:23.166Z,2.60
2019-05-17T08:32:23.122Z,2.80
2019-05-17T08:33:23.076Z,2.40
2019-05-17T08:34:23.042Z,2.30
2019-05-17T08:35:23.002Z,2.30
2019-05-17T08:36:22.963Z,2.20
2019-05-17T08:37:22.930Z,2.40
2019-05-17T08:38:22.883Z,2.40
2019-05-17T08:39:22.844Z,2.60
2019-05-17T08:40:22.806Z,2.50
2019-05-17T08:41:22.771Z,2.40
2019-05-17T08:42:22.727Z,2.20
2019-05-17T08:43:22.687Z,2.10
2019-05-17T08:44:22.647Z,2.20
2019-05-17T08:45:22.609Z,2.30
2019-05-17T08:46:22.577Z,2.10
2019-05-17T08:47:22.534Z,2.30
2019-05-17T08:48:22.500Z,2.10
2019-05-17T08:49:22.459Z,2.00
2019-05-17T08:50:22.411Z,1.90
2019-05-17T08:51:22.378Z,2.10
2019-05-17T08:52:22.335Z,2.30
2019-05-17T08:53:22.296Z,2.40
2019-05-17T08:54:22.261Z,2.20
2019-05-17T08:55:22.221Z,2.70
2019-05-17T08:56:22.185Z,2.20
2019-05-17T08:57:22.139Z,2.40
2019-05-17T08:58:22.104Z,2.40
2019-05-17T08:59:22.064Z,2.30
2019-05-17T09:00:22.032Z,2.50
2019-05-17T09:01:21.991Z,2.20
2019-05-17T09:02:21.944Z,2.30
2019-05-17T09:03:21.909Z,2.20
2019-05-17T09:04:21.869Z,1.90
2019-05-17T09:05:21.827Z,2.20
2019-05-17T09:06:21.801Z,2.00
2019-05-17T09:07:21.757Z,1.90
2019-05-17T09:08:21.717Z,2.00
2019-05-17T09:09:21.678Z,1.80
2019-05-17T09:10:21.633Z,2.00
2019-05-17T09:11:21.597Z,2.20
2019-05-17T09:12:21.559Z,2.20
2019-05-17T09:13:21.526Z,1.80
2019-05-17T09:14:21.554Z,1.60
2019-05-17T09:15:21.443Z,1.60
2019-05-17T09:16:21.411Z,1.70
2019-05-17T09:17:21.363Z,1.70
2019-05-17T09:18:21.330Z,1.70
2019-05-17T09:19:21.289Z,1.50
2019-05-17T09:20:21.251Z,1.80
2019-05-17T09:21:21.969Z,1.60
2019-05-17T09:22:21.170Z,1.60
2019-05-17T09:23:21.134Z,1.60
2019-05-17T09:24:21.098Z,1.60
2019-05-17T09:25:22.113Z,1.80
2019-05-17T09:26:21.022Z,1.70
2019-05-17T09:27:20.985Z,1.70
2019-05-17T09:28:20.945Z,1.50
2019-05-17T09:29:20.902Z,1.50
2019-05-17T09:30:20.875Z,1.70
2019-05-17T09:31:20.832Z,1.70
2019-05-17T09:32:20.793Z,1.80
2019-05-17T09:33:20.757Z,1.60
2019-05-17T09:34:20.717Z,1.70
2019-05-17T09:35:20.900Z,1.60
2019-05-17T09:36:20.657Z,1.80
2019-05-17T09:50:51.791Z,1.50
2019-05-17T09:51:51.766Z,1.90
2019-05-17T09:52:51.680Z,2.00
2019-05-17T09:53:51.638Z,2.20
2019-05-17T09:54:51.596Z,2.00
2019-05-17T09:55:51.556Z,2.00
2019-05-17T09:56:51.511Z,2.10
2019-05-17T09:57:51.472Z,2.00
2019-05-17T09:58:51.434Z,2.10
2019-05-17T09:59:51.390Z,1.90
2019-05-17T10:00:51.365Z,2.00
2019-05-17T10:01:51.314Z,2.10
2019-05-17T10:02:51.275Z,2.30
2019-05-17T10:03:51.258Z,2.40
2019-05-17T10:04:51.201Z,2.40
2019-05-17T10:05:51.159Z,2.40
2019-05-17T10:06:51.298Z,2.10
2019-05-17T10:07:51.085Z,2.10
2019-05-17T10:08:51.039Z,2.00
2019-05-17T10:09:51.006Z,2.30
2019-05-17T10:11:04.807Z,2.50
2019-05-17T10:11:50.928Z,2.60
2019-05-17T10:12:50.890Z,2.40
2019-05-17T10:13:50.854Z,2.30
2019-05-17T10:14:50.811Z,2.20
2019-05-17T10:15:50.778Z,2.60
2019-05-17T10:16:50.733Z,2.50
2019-05-17T10:17:50.699Z,2.70
2019-05-17T10:18:50.661Z,2.70
2019-05-17T10:19:50.627Z,3.00
2019-05-17T10:20:50.771Z,3.10
2019-05-17T10:21:50.545Z,3.10
2019-05-17T10:22:50.628Z,3.10
2019-05-17T10:23:50.467Z,3.20
2019-05-17T10:24:50.436Z,3.30
2019-05-17T10:25:50.395Z,2.90
2019-05-17T10:26:50.361Z,3.30
2019-05-17T10:27:50.325Z,2.80
2019-05-17T10:28:51.644Z,2.90
2019-05-17T10:29:50.285Z,2.90
2019-05-17T10:30:52.180Z,3.00
2019-05-17T10:31:50.446Z,2.60
2019-05-17T10:32:50.665Z,2.90
2019-05-17T10:33:50.102Z,3.30
2019-05-17T10:34:50.056Z,3.30
2019-05-17T10:35:50.017Z,3.10
2019-05-17T10:36:50.681Z,3.50
2019-05-17T10:37:50.521Z,3.50
2019-05-17T10:38:50.216Z,3.50
2019-05-17T10:39:50.227Z,3.70
2019-05-17T10:40:50.186Z,3.70
2019-05-17T10:41:50.099Z,3.70
2019-05-17T10:42:50.029Z,4.10
2019-05-17T10:43:50.135Z,4.30
2019-05-17T10:44:51.429Z,4.50
2019-05-17T10:45:49.645Z,4.60
2019-05-17T10:46:49.608Z,4.60
2019-05-17T10:47:50.349Z,5.00
2019-05-17T10:48:50.064Z,5.70
2019-05-17T10:49:49.690Z,4.80
2019-05-17T10:50:49.716Z,5.50
2019-05-17T10:51:49.526Z,7.00
2019-05-17T10:52:49.400Z,5.70
2019-05-17T10:53:51.241Z,5.80
2019-05-17T10:54:49.330Z,5.80
2019-05-17T10:55:49.796Z,5.80
2019-05-17T10:56:50.227Z,5.60
2019-05-17T10:57:49.977Z,5.70
2019-05-17T10:58:49.332Z,6.60
2019-05-17T10:59:49.891Z,6.60
2019-05-17T11:00:50.147Z,6.40
2019-05-17T11:01:50.180Z,6.70
2019-05-17T11:02:50.340Z,6.40
2019-05-17T11:03:50.254Z,6.60
2019-05-17T11:04:50.641Z,6.30
2019-05-17T11:05:50.278Z,6.30
2019-05-17T11:06:50.080Z,6.70
2019-05-17T11:07:50.408Z,6.40
2019-05-17T11:08:50.131Z,6.60
2019-05-17T11:09:50.984Z,6.90
2019-05-17T11:10:50.088Z,6.50
2019-05-17T11:11:48.678Z,6.50
2019-05-17T11:12:48.653Z,6.70
2019-05-17T11:13:48.607Z,6.20
2019-05-17T11:14:55.938Z,6.50
2019-05-17T11:15:48.539Z,6.50
2019-05-17T11:16:48.493Z,6.20
2019-05-17T11:17:48.458Z,6.40
2019-05-17T11:18:48.422Z,6.10
2019-05-17T11:19:48.381Z,6.50
2019-05-17T11:20:48.353Z,6.40
2019-05-17T11:21:48.315Z,6.10
2019-05-17T11:22:48.274Z,5.80
2019-05-17T11:23:48.266Z,6.00
2019-05-17T11:24:48.204Z,6.30
2019-05-17T11:25:48.172Z,6.30
2019-05-17T11:26:48.127Z,6.20
2019-05-17T11:27:48.093Z,6.60
2019-05-17T11:28:48.065Z,6.80
2019-05-17T11:29:48.020Z,6.20
2019-05-17T11:30:47.983Z,6.10
2019-05-17T11:31:47.946Z,6.00
2019-05-17T11:32:47.912Z,6.40
2019-05-17T11:33:47.873Z,5.80
2019-05-17T11:34:47.835Z,5.70
2019-05-17T11:35:47.800Z,6.00
2019-05-17T11:36:47.758Z,6.10
2019-05-17T11:37:47.723Z,5.90
2019-05-17T11:38:47.688Z,5.60
2019-05-17T11:39:47.654Z,5.90
2019-05-17T11:40:49.888Z,6.10
2019-05-17T11:41:47.579Z,5.70
2019-05-17T11:42:47.541Z,5.80
2019-05-17T11:43:47.509Z,5.80
2019-05-17T11:44:47.474Z,6.10
2019-05-17T11:45:47.434Z,6.90
2019-05-17T11:46:47.406Z,6.20
2019-05-17T11:47:47.365Z,6.30
2019-05-17T11:48:47.327Z,6.20
2019-05-17T11:49:47.287Z,6.00
2019-05-17T11:50:47.250Z,5.60
2019-05-17T11:51:47.212Z,5.70
2019-05-17T11:52:47.182Z,5.80
2019-05-17T11:53:47.149Z,5.70
2019-05-17T11:54:47.105Z,5.70
2019-05-17T11:55:47.071Z,5.60
2019-05-17T11:56:47.037Z,5.60
2019-05-17T11:57:47.000Z,5.60
2019-05-17T11:58:46.963Z,5.70
2019-05-17T11:59:46.928Z,5.70
2019-05-17T12:00:46.902Z,5.60
2019-05-17T12:01:46.854Z,5.90
2019-05-17T12:02:46.824Z,6.40
2019-05-17T12:03:46.778Z,6.20
2019-05-17T12:04:46.748Z,6.70
2019-05-17T12:05:46.717Z,6.30
2019-05-17T12:06:46.675Z,6.20
2019-05-17T12:07:46.640Z,6.30
2019-05-17T12:08:46.600Z,6.00
2019-05-17T12:09:46.570Z,6.30
2019-05-17T12:10:46.631Z,6.70
2019-05-17T12:11:46.497Z,7.00
2019-05-17T12:12:46.467Z,6.70
2019-05-17T12:13:46.422Z,7.30
2019-05-17T12:14:46.385Z,7.20
2019-05-17T12:15:46.364Z,6.80
2019-05-17T12:16:46.318Z,7.50
2019-05-17T12:17:46.280Z,7.00
2019-05-17T12:18:46.246Z,6.50
2019-05-17T12:19:46.210Z,6.50
2019-05-17T12:20:46.180Z,7.00
2019-05-17T12:21:46.136Z,6.80
2019-05-17T12:22:46.101Z,6.90
2019-05-17T12:23:46.061Z,7.10
2019-05-17T12:24:46.031Z,7.20
2019-05-17T12:25:46.048Z,7.20
2019-05-17T12:26:47.579Z,6.90
2019-05-17T12:27:45.918Z,7.30
2019-05-17T12:28:45.889Z,7.10
2019-05-17T12:29:45.862Z,6.80
2019-05-17T12:30:45.816Z,7.30
2019-05-17T12:31:45.786Z,7.20
2019-05-17T12:32:45.741Z,6.70
2019-05-17T12:33:45.707Z,6.40
2019-05-17T12:34:45.675Z,6.30
2019-05-17T12:35:45.636Z,6.60
2019-05-17T12:36:45.606Z,6.30
2019-05-17T12:37:45.569Z,6.50
2019-05-17T12:38:45.532Z,6.00
2019-05-17T12:39:45.509Z,6.50
2019-05-17T12:40:45.461Z,5.90
2019-05-17T12:41:45.442Z,5.70
2019-05-17T12:42:45.394Z,6.00
2019-05-17T12:43:45.356Z,6.00
2019-05-17T12:44:45.317Z,6.70
2019-05-17T12:45:59.344Z,6.50
2019-05-17T12:46:45.246Z,6.00
2019-05-17T12:47:45.209Z,6.30
2019-05-17T12:48:45.179Z,6.30
2019-05-17T12:49:45.142Z,6.40
2019-05-17T12:50:45.106Z,6.50
2019-05-17T12:51:45.076Z,6.70
2019-05-17T12:52:45.035Z,6.90
2019-05-17T12:53:45.000Z,7.00
2019-05-17T12:54:44.974Z,6.80
2019-05-17T12:55:44.927Z,6.80
2019-05-17T12:56:44.897Z,6.90
2019-05-17T12:57:44.860Z,6.50
2019-05-17T12:58:44.825Z,6.30
2019-05-17T12:59:44.786Z,6.30
2019-05-17T13:00:44.763Z,6.10
2019-05-17T13:01:44.731Z,6.30
2019-05-17T13:02:44.685Z,6.80
2019-05-17T13:03:44.650Z,6.20
2019-05-17T13:04:44.611Z,6.60
2019-05-17T13:05:44.581Z,6.50
2019-05-17T13:06:44.597Z,6.00
2019-05-17T13:07:44.506Z,6.60
2019-05-17T13:08:44.477Z,6.60
2019-05-17T13:09:44.451Z,6.50
2019-05-17T13:10:44.405Z,6.50
2019-05-17T13:11:44.374Z,6.30
2019-05-17T13:12:44.354Z,6.60
2019-05-17T13:13:44.302Z,6.80
2019-05-17T13:14:44.264Z,6.60
2019-05-17T13:15:44.236Z,6.70
2019-05-17T13:16:44.190Z,6.50
2019-05-17T13:17:44.158Z,6.50
2019-05-17T13:18:44.124Z,6.20
2019-05-17T13:19:44.086Z,6.10
2019-05-17T13:20:44.057Z,6.40
2019-05-17T13:21:44.021Z,6.60
2019-05-17T13:22:43.986Z,6.70
2019-05-17T13:23:43.951Z,6.40
2019-05-17T13:24:43.911Z,6.00
2019-05-17T13:25:43.956Z,6.70
2019-05-17T13:26:43.844Z,5.90
2019-05-17T13:27:43.808Z,6.40
2019-05-17T13:28:43.862Z,6.20
2019-05-17T13:29:43.743Z,6.10
2019-05-17T13:30:43.789Z,5.70
2019-05-17T13:31:43.671Z,6.30
2019-05-17T13:32:52.303Z,6.30
2019-05-17T13:34:48.918Z,6.50
2019-05-17T13:35:58.578Z,6.90
2019-05-17T13:38:03.803Z,6.10
2019-05-17T13:39:02.879Z,6.40
2019-05-17T13:41:20.197Z,6.10
2019-05-17T13:42:19.978Z,6.50
2019-05-17T13:44:16.637Z,6.60
2019-05-17T13:45:16.647Z,6.00
2019-05-17T13:46:16.536Z,5.80
2019-05-17T13:47:16.503Z,5.80
2019-05-17T13:48:16.470Z,5.70
2019-05-17T13:49:16.439Z,6.30
2019-05-17T13:50:16.406Z,6.10
2019-05-17T13:51:16.365Z,6.00
2019-05-17T13:52:16.335Z,6.10
2019-05-17T13:53:16.311Z,5.90
2019-05-17T13:54:16.270Z,5.40
2019-05-17T13:55:16.224Z,5.50
2019-05-17T13:56:16.189Z,6.00
2019-05-17T13:57:16.159Z,6.10
2019-05-17T13:58:16.176Z,6.00
2019-05-17T13:59:16.087Z,5.70
2019-05-17T14:00:24.711Z,6.40
2019-05-17T14:02:30.510Z,6.70
2019-05-17T14:03:29.093Z,10.00
2019-05-17T14:05:32.519Z,8.00
2019-05-17T14:06:33.444Z,7.40
2019-05-17T14:08:30.056Z,34.20
2019-05-17T14:09:30.034Z,19.20
2019-05-17T14:10:32.085Z,16.80
2019-05-17T14:11:29.942Z,7.90
2019-05-17T14:12:29.906Z,7.90
2019-05-17T14:13:29.891Z,7.00
2019-05-17T14:14:29.837Z,7.10
2019-05-17T14:15:29.799Z,7.30
2019-05-17T14:16:33.932Z,8.00
2019-05-17T14:17:29.736Z,8.30
2019-05-17T14:18:29.707Z,8.00
2019-05-17T14:19:29.672Z,8.50
2019-05-17T14:20:29.627Z,10.30
2019-05-17T14:21:29.586Z,25.10
2019-05-17T14:22:29.552Z,45.50
2019-05-17T14:23:29.521Z,36.80
2019-05-17T14:24:29.486Z,11.50
2019-05-17T14:25:29.455Z,8.70
2019-05-17T14:26:29.429Z,9.30
2019-05-17T14:27:29.390Z,9.10
2019-05-17T14:28:29.355Z,8.90
2019-05-17T14:29:29.313Z,9.20
2019-05-17T14:30:29.281Z,8.80
2019-05-17T14:31:29.268Z,8.70
2019-05-17T14:32:29.203Z,14.10
2019-05-17T14:33:29.166Z,47.50
2019-05-17T14:34:29.133Z,38.80
2019-05-17T14:35:29.100Z,32.60
2019-05-17T14:36:29.090Z,27.80
2019-05-17T14:37:29.030Z,16.60
2019-05-17T14:38:28.996Z,12.30
2019-05-17T14:39:28.970Z,10.00
2019-05-17T14:41:00.658Z,8.90
2019-05-17T14:41:28.882Z,8.90
2019-05-17T14:42:29.086Z,9.10
2019-05-17T14:43:31.643Z,7.30
2019-05-17T14:44:28.812Z,85.90
2019-05-17T14:45:28.788Z,47.50
2019-05-17T14:46:28.780Z,23.50
2019-05-17T14:47:28.706Z,11.40
2019-05-17T14:48:28.702Z,9.50
2019-05-17T14:49:28.608Z,9.10
2019-05-17T14:50:28.649Z,10.40
2019-05-17T14:51:28.662Z,9.00
2019-05-17T14:52:28.512Z,9.00
2019-05-17T14:53:28.464Z,8.70
2019-05-17T14:54:31.381Z,8.30
2019-05-17T14:57:12.470Z,8.40
2019-05-17T14:58:12.567Z,8.60
2019-05-17T14:59:26.043Z,44.20
2019-05-17T15:00:27.886Z,29.90
2019-05-17T15:03:24.707Z,9.00
2019-05-17T15:04:23.598Z,8.30
2019-05-17T15:05:30.757Z,8.30
2019-05-17T15:08:18.165Z,8.00
2019-05-17T15:09:15.682Z,8.90
2019-05-17T15:10:21.074Z,9.90
2019-05-17T15:11:15.669Z,9.10
2019-05-17T15:12:27.197Z,10.10
2019-05-17T15:13:14.465Z,8.10
2019-05-17T15:14:19.946Z,7.50
2019-05-17T15:16:19.912Z,7.40
2019-05-17T15:18:22.742Z,8.00
2019-05-17T15:19:23.964Z,8.10
2019-05-17T15:20:23.761Z,46.50
2019-05-17T15:22:23.264Z,33.10
2019-05-17T15:35:01.166Z,6.70
2019-05-17T15:38:40.987Z,8.70
2019-05-17T15:39:41.043Z,8.40
2019-05-17T15:40:41.117Z,8.80
2019-05-17T15:41:42.885Z,9.00
2019-05-17T15:42:44.528Z,8.80
2019-05-17T15:43:43.820Z,8.40
2019-05-17T15:44:41.026Z,8.70
2019-05-17T15:49:32.211Z,7.90
2019-05-17T15:50:30.411Z,8.40
2019-05-17T15:52:36.240Z,8.60
2019-05-17T15:53:35.771Z,8.90
2019-05-17T15:54:37.715Z,8.80
2019-05-17T15:55:36.703Z,8.50
2019-05-17T15:59:24.575Z,8.90
2019-05-17T16:00:22.937Z,8.40
2019-05-17T16:01:23.025Z,8.50
2019-05-17T16:25:13.419Z,7.80
2019-05-17T16:31:06.193Z,8.00
2019-05-17T16:41:23.660Z,8.40
2019-05-17T16:42:14.942Z,8.30
2019-05-17T16:43:21.695Z,8.90
2019-05-17T16:44:19.083Z,8.10
2019-05-17T16:53:58.861Z,8.10
2019-05-17T16:57:02.021Z,8.70
2019-05-17T16:58:21.637Z,8.50
2019-05-17T17:00:04.248Z,8.70
2019-05-17T17:03:41.822Z,8.90
2019-05-17T17:04:07.448Z,9.30
2019-05-17T17:06:13.494Z,10.20
2019-05-17T17:08:02.662Z,9.80
2019-05-17T17:17:12.055Z,9.60
2019-05-17T17:18:06.046Z,10.00
2019-05-17T17:20:09.222Z,10.40
2019-05-17T17:28:39.016Z,9.90
2019-05-17T17:35:14.455Z,9.40
2019-05-17T17:37:06.460Z,9.30
2019-05-17T17:38:06.698Z,8.70
2019-05-17T17:40:14.098Z,8.80
2019-05-17T17:41:15.325Z,9.60
2019-05-17T17:42:17.287Z,9.10
2019-05-17T17:43:22.091Z,9.80
2019-05-17T17:44:34.203Z,8.70
2019-05-17T17:45:23.662Z,9.10
2019-05-17T17:51:27.990Z,9.10
2019-05-17T17:52:18.331Z,9.10
2019-05-17T17:55:18.812Z,9.00
2019-05-17T17:56:16.963Z,8.40
2019-05-17T17:57:16.983Z,9.00
2019-05-17T18:03:33.707Z,9.90
2019-05-17T18:03:37.394Z,15.30
2019-05-17T18:04:38.024Z,14.50
2019-05-17T18:05:38.331Z,9.80
2019-05-17T18:06:38.735Z,9.20
2019-05-17T18:16:52.077Z,8.90
2019-05-17T18:19:16.277Z,8.60
2019-05-17T18:20:17.836Z,8.60
2019-05-17T18:21:16.508Z,8.60
2019-05-17T18:24:02.299Z,8.70
2019-05-17T18:25:04.162Z,8.80
2019-05-17T18:26:02.216Z,8.60
2019-05-17T18:27:03.762Z,9.10
2019-05-17T18:36:09.072Z,28.10
2019-05-17T21:50:25.959Z,10.70
2019-05-17T21:53:30.887Z,11.60
2019-05-17T21:54:29.822Z,12.00
2019-05-17T21:57:02.293Z,10.60
2019-05-17T21:58:10.674Z,10.50
2019-05-17T22:00:06.661Z,10.70
2019-05-17T22:01:06.681Z,10.40
2019-05-17T22:02:06.124Z,11.00
2019-05-17T22:03:06.475Z,11.70
2019-05-17T22:04:06.106Z,11.90
2019-05-17T22:05:05.998Z,12.40
2019-05-17T22:06:05.956Z,12.00
2019-05-17T22:07:05.936Z,12.30
2019-05-17T22:08:05.881Z,12.90
2019-05-17T22:09:05.871Z,12.40
2019-05-17T22:10:05.811Z,13.10
2019-05-17T22:11:05.772Z,15.00
2019-05-17T22:12:05.732Z,16.00
